Time;durP1;ratioP1;P1;durP2;ratioP2;P2;SDS_P1;SDS_P2;PMS_P1;PMS_P2;Temp;Humidity;BMP_temperature;BMP_pressure;BME280_temperature;BME280_humidity;BME280_pressure;Samples;Min_cycle;Max_cycle;Signal;HPM_P1;HPM_P2
2022/01/30 00:01:52;;;;;;;42.03;9.37;;;7.20;99.90;;;;;;5049407;28;20549;-63
2022/01/30 00:04:18;;;;;;;40.53;9.63;;;7.20;99.90;;;;;;5065900;28;20383;-62
2022/01/30 00:06:43;;;;;;;44.33;8.95;;;7.20;99.90;;;;;;5050791;28;20492;-63
2022/01/30 00:09:16;;;;;;;35.83;9.38;;;7.20;99.90;;;;;;5050813;28;20499;-63
2022/01/30 00:11:45;;;;;;;36.85;9.18;;;7.10;99.90;;;;;;5048992;28;20706;-63
2022/01/30 00:14:14;;;;;;;35.63;8.23;;;7.10;99.90;;;;;;5067353;28;20450;-63
2022/01/30 00:16:40;;;;;;;36.42;8.68;;;7.10;99.90;;;;;;5048964;28;20814;-63
2022/01/30 00:19:16;;;;;;;34.97;8.07;;;7.10;99.90;;;;;;5050383;28;20388;-63
2022/01/30 00:21:48;;;;;;;39.83;9.25;;;7.00;99.90;;;;;;5050236;28;20783;-63
2022/01/30 00:24:20;;;;;;;37.53;8.80;;;7.00;99.90;;;;;;5051546;28;20376;-62
2022/01/30 00:26:47;;;;;;;34.97;8.50;;;7.00;99.90;;;;;;5050601;28;20434;-61
2022/01/30 00:29:13;;;;;;;35.58;8.85;;;6.90;99.90;;;;;;5052003;28;20675;-61
2022/01/30 00:31:39;;;;;;;34.08;8.05;;;6.90;99.90;;;;;;5054112;28;20397;-63
2022/01/30 00:34:05;;;;;;;38.88;8.52;;;6.90;99.90;;;;;;5069550;28;20989;-62
2022/01/30 00:36:31;;;;;;;39.67;9.27;;;6.90;99.90;;;;;;5053033;28;20454;-63
2022/01/30 00:38:58;;;;;;;37.03;9.10;;;6.80;99.90;;;;;;5069436;28;20528;-63
2022/01/30 00:41:24;;;;;;;37.92;9.23;;;6.90;99.90;;;;;;5053459;28;20380;-63
2022/01/30 00:43:50;;;;;;;46.33;10.00;;;6.80;99.90;;;;;;5070264;28;20429;-63
2022/01/30 00:46:15;;;;;;;37.17;9.27;;;6.80;99.90;;;;;;5053321;28;20726;-63
2022/01/30 00:48:41;;;;;;;39.88;10.20;;;6.80;99.90;;;;;;5053374;28;20468;-63
2022/01/30 00:51:06;;;;;;;53.15;10.13;;;6.70;99.90;;;;;;5070220;28;20451;-63
2022/01/30 00:53:32;;;;;;;40.28;10.25;;;6.50;99.90;;;;;;5050607;28;20541;-63
2022/01/30 00:55:58;;;;;;;44.03;9.60;;;6.40;99.90;;;;;;5068831;28;20411;-63
2022/01/30 00:58:24;;;;;;;43.33;9.30;;;6.30;99.90;;;;;;5052166;28;20870;-63
2022/01/30 01:00:49;;;;;;;42.30;9.73;;;6.30;99.90;;;;;;5052190;28;20783;-63
2022/01/30 01:03:17;;;;;;;46.73;10.27;;;6.30;99.90;;;;;;5053738;28;20867;-63
2022/01/30 01:05:42;;;;;;;43.53;10.75;;;6.40;99.90;;;;;;5053613;28;20846;-63
2022/01/30 01:08:27;;;;;;;44.75;10.20;;;6.40;99.90;;;;;;5055372;28;20606;-63
2022/01/30 01:11:00;;;;;;;46.60;9.80;;;6.30;99.90;;;;;;5056061;28;20838;-63
2022/01/30 01:24:06;;;;;;;29.95;6.70;;;6.20;99.90;;;;;;5071690;28;20687;-63
2022/01/30 01:26:34;;;;;;;28.30;6.30;;;6.10;99.90;;;;;;5055430;28;20448;-63
2022/01/30 01:28:59;;;;;;;30.08;6.93;;;6.10;99.90;;;;;;5056593;28;20478;-63
2022/01/30 01:31:25;;;;;;;33.80;8.32;;;6.20;99.90;;;;;;5072890;28;20674;-63
2022/01/30 01:36:36;;;;;;;31.85;7.75;;;6.20;99.90;;;;;;5073065;28;20402;-63
2022/01/30 01:39:03;;;;;;;32.57;7.37;;;6.20;99.90;;;;;;5057437;28;20566;-63
2022/01/30 01:41:31;;;;;;;31.50;8.25;;;6.20;99.90;;;;;;5056393;28;20387;-63
2022/01/30 01:43:58;;;;;;;39.57;7.83;;;6.20;99.90;;;;;;5072940;28;20510;-63
2022/01/30 01:46:29;;;;;;;31.60;7.35;;;6.30;99.90;;;;;;5054720;28;20442;-63
2022/01/30 01:48:56;;;;;;;30.08;6.80;;;6.30;99.90;;;;;;5056408;28;20392;-63
2022/01/30 01:51:24;;;;;;;24.25;6.72;;;6.40;99.90;;;;;;5074131;28;20384;-63
2022/01/30 01:53:53;;;;;;;27.63;6.97;;;6.40;99.90;;;;;;5056558;28;20450;-63
2022/01/30 01:56:19;;;;;;;37.42;7.32;;;6.40;99.90;;;;;;5056471;28;20396;-64
2022/01/30 01:58:45;;;;;;;29.42;7.90;;;6.40;99.90;;;;;;5058181;28;20703;-63
2022/01/30 02:01:11;;;;;;;33.73;7.77;;;6.40;99.90;;;;;;5056018;28;20495;-63
2022/01/30 02:03:38;;;;;;;32.73;8.57;;;6.40;99.90;;;;;;5073910;28;20458;-63
2022/01/30 02:06:08;;;;;;;41.10;9.25;;;6.40;99.90;;;;;;5056982;28;20392;-62
2022/01/30 02:08:40;;;;;;;35.17;8.17;;;6.40;99.90;;;;;;5057000;28;20461;-62
2022/01/30 02:11:14;;;;;;;34.90;8.47;;;6.40;99.90;;;;;;5056703;28;20825;-62
2022/01/30 02:26:57;;;;;;;31.95;7.95;;;6.40;99.90;;;;;;5071188;28;20394;-62
2022/01/30 02:29:23;;;;;;;34.17;8.15;;;6.40;99.90;;;;;;5071921;28;20396;-63
2022/01/30 02:31:48;;;;;;;32.65;8.35;;;6.30;99.90;;;;;;5056829;28;20434;-63
2022/01/30 02:34:14;;;;;;;36.03;7.60;;;6.30;99.90;;;;;;5057516;28;20683;-63
2022/01/30 02:36:46;;;;;;;40.33;8.80;;;6.30;99.90;;;;;;5055220;28;20445;-63
2022/01/30 02:39:11;;;;;;;37.77;9.27;;;6.30;99.90;;;;;;5074490;28;20368;-63
2022/01/30 02:41:38;;;;;;;40.57;9.37;;;6.20;99.90;;;;;;5056970;28;20719;-63
2022/01/30 02:44:11;;;;;;;35.57;9.53;;;6.20;99.90;;;;;;5057497;28;20880;-63
2022/01/30 02:46:41;;;;;;;33.20;8.32;;;6.20;99.90;;;;;;5055022;28;20422;-63
2022/01/30 02:49:28;;;;;;;40.97;9.40;;;6.20;99.90;;;;;;5073477;28;20409;-62
2022/01/30 02:52:00;;;;;;;39.67;8.68;;;6.20;99.90;;;;;;5057915;28;20392;-61
2022/01/30 02:54:27;;;;;;;35.88;8.15;;;6.30;99.90;;;;;;5056504;28;20408;-62
2022/01/30 02:56:53;;;;;;;38.83;9.02;;;6.30;99.90;;;;;;5056365;28;20380;-62
2022/01/30 02:59:18;;;;;;;31.17;7.63;;;6.30;99.90;;;;;;5055470;28;20946;-63
2022/01/30 03:01:44;;;;;;;32.33;7.80;;;6.30;99.90;;;;;;5055706;28;20464;-62
2022/01/30 03:04:10;;;;;;;35.78;7.97;;;6.40;99.90;;;;;;5055980;28;20394;-63
2022/01/30 03:06:37;;;;;;;37.60;7.80;;;6.40;99.90;;;;;;5072855;28;20478;-63
2022/01/30 03:09:05;;;;;;;37.83;8.15;;;6.30;99.90;;;;;;5054417;28;20441;-62
2022/01/30 03:11:31;;;;;;;30.42;7.80;;;6.30;99.90;;;;;;5070581;28;20375;-63
2022/01/30 03:13:56;;;;;;;31.33;8.33;;;6.40;99.90;;;;;;5055430;28;20652;-63
2022/01/30 03:16:22;;;;;;;42.43;8.73;;;6.40;99.90;;;;;;5072385;28;20803;-62
2022/01/30 03:18:48;;;;;;;35.65;8.48;;;6.40;99.90;;;;;;5071281;28;20540;-63
2022/01/30 03:21:14;;;;;;;40.88;8.57;;;6.40;99.90;;;;;;5054654;28;20859;-63
2022/01/30 03:23:40;;;;;;;38.17;9.37;;;6.40;99.90;;;;;;5054177;28;20376;-63
2022/01/30 03:26:07;;;;;;;35.40;8.83;;;6.40;99.90;;;;;;5053445;28;20728;-63
2022/01/30 03:28:32;;;;;;;32.13;8.20;;;6.40;99.90;;;;;;5071714;28;20415;-63
2022/01/30 03:31:05;;;;;;;33.13;8.57;;;6.40;99.90;;;;;;5055820;28;20803;-61
2022/01/30 03:33:31;;;;;;;32.42;8.20;;;6.40;99.90;;;;;;5073414;28;20384;-61
2022/01/30 03:35:57;;;;;;;32.72;8.30;;;6.40;99.90;;;;;;5073659;28;20468;-63
2022/01/30 03:38:23;;;;;;;32.33;8.98;;;6.40;99.90;;;;;;5056869;28;20818;-63
2022/01/30 03:40:50;;;;;;;37.58;8.38;;;6.40;99.90;;;;;;5074029;28;20513;-62
2022/01/30 03:43:16;;;;;;;35.65;8.15;;;6.40;99.90;;;;;;5057426;28;20411;-62
2022/01/30 03:45:42;;;;;;;37.30;8.83;;;6.40;99.90;;;;;;5056102;28;20446;-62
2022/01/30 03:48:08;;;;;;;37.58;9.32;;;6.40;99.90;;;;;;5056184;28;20385;-62
2022/01/30 03:50:34;;;;;;;37.50;8.90;;;6.40;99.90;;;;;;5073823;28;20382;-63
2022/01/30 03:53:00;;;;;;;34.13;8.52;;;6.40;99.90;;;;;;5074898;28;20475;-63
2022/01/30 03:55:26;;;;;;;34.45;7.82;;;6.40;99.90;;;;;;5052431;28;20792;-63
2022/01/30 03:57:52;;;;;;;36.87;8.90;;;6.40;99.90;;;;;;5053164;28;20396;-63
2022/01/30 04:00:18;;;;;;;33.65;8.93;;;6.40;99.90;;;;;;5053510;28;20740;-63
2022/01/30 04:02:44;;;;;;;27.17;7.80;;;6.40;99.90;;;;;;5052771;28;20586;-63
2022/01/30 04:05:09;;;;;;;30.73;8.20;;;6.40;99.90;;;;;;5051949;28;20479;-63
2022/01/30 04:07:35;;;;;;;36.40;8.47;;;6.30;99.90;;;;;;5053073;28;20394;-63
2022/01/30 04:10:04;;;;;;;38.20;8.43;;;6.30;99.90;;;;;;5053737;28;20389;-64
2022/01/30 04:12:30;;;;;;;30.73;8.23;;;6.30;99.90;;;;;;5055221;28;20416;-64
2022/01/30 04:14:55;;;;;;;32.65;7.85;;;6.20;99.90;;;;;;5052805;28;20459;-64
2022/01/30 04:17:25;;;;;;;30.33;6.93;;;6.20;99.90;;;;;;5050958;28;20428;-64
2022/01/30 04:19:50;;;;;;;32.53;7.67;;;6.20;99.90;;;;;;5050688;28;20507;-63
2022/01/30 04:22:16;;;;;;;34.33;8.20;;;6.10;99.90;;;;;;5052750;28;20488;-63
2022/01/30 04:24:42;;;;;;;34.97;7.80;;;6.10;99.90;;;;;;5052907;28;20535;-63
2022/01/30 04:27:08;;;;;;;36.13;8.30;;;6.20;99.90;;;;;;5053081;28;20473;-63
2022/01/30 04:29:34;;;;;;;29.85;8.30;;;6.20;99.90;;;;;;5051227;28;20395;-64
2022/01/30 04:32:00;;;;;;;36.60;8.93;;;6.20;99.90;;;;;;5050806;28;20405;-63
2022/01/30 04:34:27;;;;;;;37.40;9.07;;;6.20;99.90;;;;;;5050798;28;20820;-64
2022/01/30 04:37:02;;;;;;;32.97;8.02;;;6.30;99.90;;;;;;5052171;28;20812;-63
2022/01/30 04:42:23;;;;;;;30.20;8.32;;;6.40;99.90;;;;;;5056732;28;20777;-63
2022/01/30 04:53:19;;;;;;;32.53;8.52;;;6.40;99.90;;;;;;5057569;28;20476;-63
2022/01/30 04:58:36;;;;;;;41.63;9.20;;;6.50;99.90;;;;;;5058677;28;20407;-62
2022/01/30 05:02:09;;;;;;;32.80;8.07;;;6.50;99.90;;;;;;5054687;28;20650;-63
2022/01/30 05:04:16;;;;;;;36.30;8.55;;;6.50;99.90;;;;;;5043679;28;20386;-64
2022/01/30 05:06:55;;;;;;;32.75;8.35;;;6.50;99.90;;;;;;5054280;28;20385;-60
2022/01/30 05:09:21;;;;;;;33.78;8.23;;;6.40;99.90;;;;;;5053913;28;20381;-63
2022/01/30 05:11:47;;;;;;;33.53;8.55;;;6.40;99.90;;;;;;5055980;28;20387;-63
2022/01/30 05:14:14;;;;;;;30.93;7.97;;;6.40;99.90;;;;;;5054913;28;20386;-63
2022/01/30 05:16:40;;;;;;;34.38;8.45;;;6.40;99.90;;;;;;5056060;28;20412;-63
2022/01/30 05:19:06;;;;;;;37.20;8.27;;;6.40;99.90;;;;;;5055681;28;20397;-63
2022/01/30 05:21:31;;;;;;;34.67;8.65;;;6.40;99.90;;;;;;5056506;28;20389;-62
2022/01/30 05:23:57;;;;;;;34.83;8.73;;;6.40;99.90;;;;;;5057181;28;20391;-63
2022/01/30 05:26:25;;;;;;;34.30;8.70;;;6.40;99.90;;;;;;5057186;28;20480;-63
2022/01/30 05:28:52;;;;;;;44.03;9.23;;;6.30;99.90;;;;;;5055541;28;20377;-63
2022/01/30 05:31:18;;;;;;;40.67;9.70;;;6.30;99.90;;;;;;5054592;28;20481;-63
2022/01/30 05:33:44;;;;;;;40.43;10.10;;;6.30;99.90;;;;;;5053980;28;20397;-63
2022/01/30 05:36:10;;;;;;;42.45;9.52;;;6.20;99.90;;;;;;5055251;28;20451;-63
2022/01/30 05:38:36;;;;;;;34.15;8.43;;;6.20;99.90;;;;;;5052592;28;20389;-63
2022/01/30 05:41:02;;;;;;;30.90;7.85;;;6.20;99.90;;;;;;5053572;28;20689;-63
2022/01/30 05:43:30;;;;;;;37.75;8.85;;;6.30;99.90;;;;;;5053721;28;20386;-63
2022/01/30 05:46:09;;;;;;;35.60;8.73;;;6.30;99.90;;;;;;5052524;28;20401;-63
2022/01/30 05:48:35;;;;;;;31.35;8.13;;;6.30;99.90;;;;;;5053442;28;20591;-63
2022/01/30 05:51:01;;;;;;;34.10;7.60;;;6.30;99.90;;;;;;5054405;28;20859;-63
2022/01/30 05:53:26;;;;;;;34.35;7.80;;;6.30;99.90;;;;;;5054176;28;20385;-63
2022/01/30 05:55:52;;;;;;;35.65;8.52;;;6.20;99.90;;;;;;5051285;28;20439;-63
2022/01/30 05:58:17;;;;;;;37.47;9.13;;;6.20;99.90;;;;;;5053497;28;20483;-63
2022/01/30 06:00:43;;;;;;;38.10;8.65;;;6.20;99.90;;;;;;5054061;28;20409;-61
2022/01/30 06:03:08;;;;;;;34.43;8.43;;;6.20;99.90;;;;;;5051447;28;20385;-62
2022/01/30 06:05:34;;;;;;;33.23;8.10;;;6.20;99.90;;;;;;5050313;28;20773;-62
2022/01/30 06:08:10;;;;;;;35.05;8.73;;;6.10;99.90;;;;;;5050867;28;20385;-63
2022/01/30 06:10:35;;;;;;;33.97;8.90;;;6.10;99.90;;;;;;5050096;28;20564;-63
2022/01/30 06:13:01;;;;;;;38.97;9.63;;;6.10;99.90;;;;;;5050147;28;20382;-63
2022/01/30 06:15:26;;;;;;;35.10;8.43;;;6.10;99.90;;;;;;5051500;28;20436;-63
2022/01/30 06:17:52;;;;;;;35.67;8.50;;;6.10;99.90;;;;;;5053546;28;20397;-63
2022/01/30 06:20:17;;;;;;;34.00;8.60;;;6.10;99.90;;;;;;5052567;28;20385;-63
2022/01/30 06:22:43;;;;;;;36.35;8.25;;;6.10;99.90;;;;;;5051966;28;20386;-63
2022/01/30 06:25:09;;;;;;;32.80;8.57;;;6.10;99.90;;;;;;5051958;28;20381;-63
2022/01/30 06:27:35;;;;;;;29.60;7.97;;;6.10;99.90;;;;;;5050594;28;20385;-63
2022/01/30 06:30:04;;;;;;;31.70;7.72;;;6.10;99.90;;;;;;5050308;28;20728;-63
2022/01/30 06:32:30;;;;;;;34.88;7.80;;;6.00;99.90;;;;;;5051630;28;20401;-63
2022/01/30 06:34:56;;;;;;;30.48;7.97;;;6.00;99.90;;;;;;5051540;28;20401;-63
2022/01/30 06:37:22;;;;;;;30.57;7.13;;;6.00;99.90;;;;;;5049085;28;20389;-63
2022/01/30 06:39:48;;;;;;;38.10;8.20;;;6.00;99.90;;;;;;5050339;28;20732;-63
2022/01/30 06:42:13;;;;;;;34.10;8.50;;;6.00;99.90;;;;;;5052153;28;20389;-63
2022/01/30 06:44:39;;;;;;;33.13;8.40;;;6.00;99.90;;;;;;5051565;28;20389;-63
2022/01/30 06:47:05;;;;;;;36.37;9.17;;;6.00;99.90;;;;;;5053433;28;20730;-63
2022/01/30 06:49:31;;;;;;;32.00;8.50;;;6.00;99.90;;;;;;5051393;28;20473;-63
2022/01/30 06:51:56;;;;;;;33.85;8.13;;;6.10;99.90;;;;;;5049004;28;20488;-63
2022/01/30 06:54:22;;;;;;;40.87;9.47;;;6.10;99.90;;;;;;5049801;28;20413;-63
2022/01/30 06:56:47;;;;;;;34.20;8.23;;;6.10;99.90;;;;;;5052716;28;20469;-63
2022/01/30 06:59:13;;;;;;;35.40;8.97;;;6.10;99.90;;;;;;5050240;28;20389;-63
2022/01/30 07:01:39;;;;;;;40.67;9.05;;;6.10;99.90;;;;;;5050217;28;20762;-63
2022/01/30 07:04:04;;;;;;;33.08;8.57;;;6.10;99.90;;;;;;5050627;28;20385;-63
2022/01/30 07:06:30;;;;;;;35.17;8.20;;;6.10;99.90;;;;;;5051268;28;20712;-63
2022/01/30 07:08:55;;;;;;;31.73;8.43;;;6.20;99.90;;;;;;5053470;28;20386;-63
2022/01/30 07:11:21;;;;;;;40.70;8.73;;;6.20;99.90;;;;;;5052661;28;20381;-63
2022/01/30 07:13:47;;;;;;;29.80;8.40;;;6.20;99.90;;;;;;5051970;28;20382;-63
2022/01/30 07:16:15;;;;;;;36.50;8.93;;;6.10;99.90;;;;;;5050441;28;20401;-63
2022/01/30 07:18:41;;;;;;;38.08;9.63;;;6.10;99.90;;;;;;5051286;28;20393;-63
2022/01/30 07:21:09;;;;;;;36.30;8.68;;;6.10;99.90;;;;;;5049930;28;20393;-63
2022/01/30 07:23:38;;;;;;;36.33;8.45;;;6.10;99.90;;;;;;5051342;28;20382;-63
2022/01/30 07:26:04;;;;;;;42.58;9.57;;;6.10;99.90;;;;;;5049799;28;20382;-64
2022/01/30 07:28:30;;;;;;;32.50;8.95;;;6.10;99.90;;;;;;5049879;28;20899;-63
2022/01/30 07:30:56;;;;;;;47.78;10.10;;;6.10;99.90;;;;;;5050794;28;20595;-63
2022/01/30 07:33:22;;;;;;;41.15;9.65;;;6.10;99.90;;;;;;5049061;28;20392;-62
2022/01/30 07:35:49;;;;;;;47.97;10.20;;;6.10;99.90;;;;;;5049133;28;20409;-64
2022/01/30 07:38:16;;;;;;;47.70;10.88;;;6.10;99.90;;;;;;5050573;28;20812;-63
2022/01/30 07:40:41;;;;;;;42.22;10.88;;;6.10;99.90;;;;;;5048558;28;20416;-62
2022/01/30 07:43:08;;;;;;;49.40;11.33;;;6.10;99.90;;;;;;5047644;28;20499;-63
2022/01/30 07:45:34;;;;;;;47.78;10.88;;;6.10;99.90;;;;;;5048612;28;20544;-63
2022/01/30 07:47:59;;;;;;;45.90;10.60;;;6.20;99.90;;;;;;5049745;28;20489;-63
2022/01/30 07:50:25;;;;;;;52.47;11.67;;;6.20;99.90;;;;;;5047614;28;20377;-62
2022/01/30 07:52:50;;;;;;;51.60;11.00;;;6.20;99.90;;;;;;5046760;28;20492;-63
2022/01/30 07:55:17;;;;;;;51.30;11.17;;;6.30;99.90;;;;;;5062429;28;20415;-63
2022/01/30 07:57:42;;;;;;;46.55;11.23;;;6.30;99.90;;;;;;5051076;28;20389;-63
2022/01/30 08:00:08;;;;;;;41.33;11.20;;;6.30;99.90;;;;;;5051232;28;20383;-63
2022/01/30 08:02:34;;;;;;;47.45;12.13;;;6.30;99.90;;;;;;5051758;28;20396;-63
2022/01/30 08:04:59;;;;;;;45.43;10.70;;;6.40;99.90;;;;;;5050225;28;20418;-63
2022/01/30 08:07:26;;;;;;;45.13;11.07;;;6.40;99.90;;;;;;5051825;28;20637;-63
2022/01/30 08:09:51;;;;;;;51.40;11.27;;;6.40;99.90;;;;;;5071625;28;20880;-63
2022/01/30 08:12:19;;;;;;;51.88;10.77;;;6.40;99.90;;;;;;5056058;28;20388;-63
2022/01/30 08:14:45;;;;;;;50.70;11.10;;;6.40;99.90;;;;;;5057461;28;20517;-63
2022/01/30 08:17:10;;;;;;;44.70;11.07;;;6.40;99.90;;;;;;5075103;28;20757;-63
2022/01/30 08:19:36;;;;;;;48.43;10.37;;;6.40;99.90;;;;;;5057760;28;20768;-63
2022/01/30 08:22:02;;;;;;;39.95;10.50;;;6.50;99.90;;;;;;5057376;28;20384;-63
2022/01/30 08:24:28;;;;;;;47.70;10.55;;;6.50;99.90;;;;;;5075887;28;20798;-63
2022/01/30 08:26:53;;;;;;;40.30;10.40;;;6.50;99.90;;;;;;5056421;28;20392;-63
2022/01/30 08:29:18;;;;;;;43.03;9.85;;;6.50;99.90;;;;;;5056834;28;20811;-63
2022/01/30 08:31:44;;;;;;;40.37;10.00;;;6.50;99.90;;;;;;5071650;28;20445;-63
2022/01/30 08:34:10;;;;;;;42.63;9.83;;;6.50;99.90;;;;;;5073317;28;20411;-63
2022/01/30 08:36:35;;;;;;;41.57;9.60;;;6.50;99.90;;;;;;5055922;28;20423;-63
2022/01/30 08:39:01;;;;;;;45.17;11.15;;;6.50;99.90;;;;;;5051404;28;20383;-63
2022/01/30 08:41:27;;;;;;;50.88;10.65;;;6.50;99.90;;;;;;5054200;28;20496;-64
2022/01/30 08:43:52;;;;;;;36.25;9.23;;;6.50;99.90;;;;;;5053523;28;20380;-64
2022/01/30 08:46:20;;;;;;;32.43;8.83;;;6.60;99.90;;;;;;5052002;28;20396;-64
2022/01/30 08:48:46;;;;;;;38.58;9.77;;;6.60;99.90;;;;;;5070678;28;20401;-64
2022/01/30 08:51:11;;;;;;;43.90;9.60;;;6.50;99.90;;;;;;5072209;28;20391;-64
2022/01/30 08:53:36;;;;;;;41.45;9.55;;;6.50;99.90;;;;;;5054782;28;20446;-63
2022/01/30 08:56:02;;;;;;;32.42;9.00;;;6.50;99.90;;;;;;5053104;28;20437;-63
2022/01/30 08:58:29;;;;;;;33.22;8.73;;;6.50;99.90;;;;;;5054934;28;20390;-63
2022/01/30 09:00:55;;;;;;;36.40;8.73;;;6.50;99.90;;;;;;5056150;28;20462;-63
2022/01/30 09:03:21;;;;;;;38.10;9.50;;;6.60;99.90;;;;;;5074229;28;20380;-63
2022/01/30 09:05:46;;;;;;;41.30;9.63;;;6.50;99.90;;;;;;5056608;28;20427;-63
2022/01/30 09:08:13;;;;;;;37.27;8.90;;;6.50;99.90;;;;;;5073394;28;20390;-63
2022/01/30 09:10:39;;;;;;;40.00;10.40;;;6.50;99.90;;;;;;5054585;28;20387;-63
2022/01/30 09:13:06;;;;;;;38.50;8.80;;;6.50;99.90;;;;;;5053869;28;20819;-63
2022/01/30 09:15:39;;;;;;;40.57;9.40;;;6.50;99.90;;;;;;5053456;28;21043;-62
2022/01/30 09:18:08;;;;;;;39.90;9.27;;;6.50;99.90;;;;;;5052296;28;20390;-63
2022/01/30 09:20:36;;;;;;;37.92;9.25;;;6.50;99.90;;;;;;5069217;28;20799;-62
2022/01/30 09:23:02;;;;;;;40.73;9.27;;;6.50;99.90;;;;;;5050296;28;20624;-63
2022/01/30 09:25:28;;;;;;;46.35;9.82;;;6.50;99.90;;;;;;5052618;28;20395;-63
2022/01/30 09:27:53;;;;;;;43.90;10.05;;;6.50;99.90;;;;;;5052535;28;20383;-63
2022/01/30 09:30:19;;;;;;;39.83;9.87;;;6.50;99.90;;;;;;5071828;28;20474;-63
2022/01/30 09:32:44;;;;;;;40.80;9.57;;;6.60;99.90;;;;;;5072418;28;20387;-63
2022/01/30 09:35:10;;;;;;;40.08;10.00;;;6.60;99.90;;;;;;5054624;28;20404;-63
2022/01/30 09:37:36;;;;;;;37.95;9.63;;;6.60;99.90;;;;;;5053776;28;20664;-63
2022/01/30 09:40:03;;;;;;;41.40;9.13;;;6.70;99.90;;;;;;5052664;28;20390;-63
2022/01/30 09:42:29;;;;;;;40.65;10.05;;;6.70;99.90;;;;;;5051971;28;20394;-63
2022/01/30 09:45:00;;;;;;;45.87;11.07;;;6.70;99.90;;;;;;5051825;28;20540;-63
2022/01/30 09:47:26;;;;;;;43.83;10.35;;;6.70;99.90;;;;;;5069578;28;20403;-62
2022/01/30 09:49:53;;;;;;;42.28;10.13;;;6.70;99.90;;;;;;5068843;28;20403;-63
2022/01/30 09:52:19;;;;;;;43.00;10.47;;;6.80;99.90;;;;;;5050679;28;20380;-63
2022/01/30 09:54:47;;;;;;;41.92;10.38;;;6.70;99.90;;;;;;5066085;28;20427;-63
2022/01/30 09:57:14;;;;;;;45.13;10.25;;;6.80;99.90;;;;;;5050775;28;20664;-63
2022/01/30 09:59:39;;;;;;;48.22;10.27;;;6.80;99.90;;;;;;5051422;28;20854;-62
2022/01/30 10:02:06;;;;;;;46.50;10.47;;;6.80;99.90;;;;;;5050303;28;20419;-62
2022/01/30 10:04:33;;;;;;;43.75;10.65;;;6.80;99.90;;;;;;5069122;28;20763;-63
2022/01/30 10:07:04;;;;;;;37.85;9.30;;;6.80;99.90;;;;;;5050804;28;20383;-63
2022/01/30 10:09:34;;;;;;;41.13;10.20;;;6.80;99.90;;;;;;5049530;28;20819;-63
2022/01/30 10:12:19;;;;;;;46.45;11.60;;;6.70;99.90;;;;;;5048145;28;20779;-62
2022/01/30 10:15:11;;;;;;;42.35;10.60;;;6.70;99.90;;;;;;5067347;28;20628;-62
2022/01/30 10:17:46;;;;;;;38.67;9.48;;;6.70;99.90;;;;;;5049560;28;20415;-62
2022/01/30 10:20:14;;;;;;;43.70;9.98;;;6.70;99.90;;;;;;5049316;28;20384;-62
2022/01/30 10:22:56;;;;;;;40.65;9.85;;;6.80;99.90;;;;;;5067959;28;20672;-61
2022/01/30 10:25:30;;;;;;;39.22;9.73;;;6.80;99.90;;;;;;5069873;28;20512;-62
2022/01/30 10:28:21;;;;;;;42.13;9.63;;;6.80;99.90;;;;;;5050313;28;20660;-62
2022/01/30 10:30:51;;;;;;;48.58;10.63;;;6.80;99.90;;;;;;5038058;28;20477;-62
2022/01/30 10:33:22;;;;;;;45.25;10.05;;;6.90;99.90;;;;;;5050935;28;20625;-62
2022/01/30 10:36:09;;;;;;;39.15;10.25;;;6.90;99.90;;;;;;5068282;28;20400;-62
2022/01/30 10:38:40;;;;;;;37.78;10.40;;;6.90;99.90;;;;;;5051085;28;20657;-62
2022/01/30 10:41:12;;;;;;;45.22;9.25;;;6.90;99.90;;;;;;5069424;28;20695;-62
2022/01/30 10:43:56;;;;;;;40.20;9.90;;;6.90;99.90;;;;;;5051196;28;20718;-61
2022/01/30 10:46:28;;;;;;;34.30;9.23;;;7.00;99.90;;;;;;5049008;28;20396;-62
2022/01/30 10:48:58;;;;;;;37.13;9.27;;;7.00;99.90;;;;;;5048036;28;20446;-62
2022/01/30 10:51:25;;;;;;;38.95;9.40;;;7.00;99.90;;;;;;5044628;28;20461;-62
2022/01/30 10:53:51;;;;;;;37.95;8.93;;;7.20;99.90;;;;;;5046859;28;20645;-62
2022/01/30 10:56:26;;;;;;;38.70;9.23;;;7.20;99.90;;;;;;5047694;28;20418;-62
2022/01/30 10:59:13;;;;;;;39.22;9.20;;;7.30;99.90;;;;;;5048386;28;20383;-62
2022/01/30 11:01:46;;;;;;;32.20;8.82;;;7.40;99.90;;;;;;5046298;28;20501;-63
2022/01/30 11:04:30;;;;;;;37.90;8.77;;;7.40;99.90;;;;;;5046795;28;20420;-62
2022/01/30 11:06:58;;;;;;;32.28;8.70;;;7.40;99.90;;;;;;5049150;28;20460;-63
2022/01/30 11:09:33;;;;;;;39.47;9.73;;;7.40;99.90;;;;;;5034242;28;21018;-62
2022/01/30 11:12:08;;;;;;;41.25;9.55;;;7.50;99.90;;;;;;5035323;28;20761;-61
2022/01/30 11:14:50;;;;;;;39.88;10.30;;;7.40;99.90;;;;;;5035145;28;20602;-62
2022/01/30 11:17:21;;;;;;;45.92;10.30;;;7.40;99.90;;;;;;5053028;28;20404;-62
2022/01/30 11:19:52;;;;;;;44.75;9.48;;;7.30;99.90;;;;;;5035831;28;20394;-62
2022/01/30 11:22:20;;;;;;;42.17;9.77;;;7.30;99.90;;;;;;5035824;28;20386;-62
2022/01/30 11:24:53;;;;;;;35.28;8.75;;;7.30;99.90;;;;;;5030627;28;20381;-62
2022/01/30 11:27:22;;;;;;;29.87;8.10;;;7.30;99.90;;;;;;5049409;28;20435;-62
2022/01/30 11:29:48;;;;;;;33.53;7.85;;;7.30;99.90;;;;;;5035384;28;20666;-62
2022/01/30 11:32:17;;;;;;;30.30;7.85;;;7.30;99.90;;;;;;5033768;28;20875;-62
2022/01/30 11:34:44;;;;;;;33.88;8.90;;;7.40;99.90;;;;;;5033875;28;20409;-62
2022/01/30 11:37:14;;;;;;;35.30;8.98;;;7.40;99.90;;;;;;5035285;28;20406;-62
2022/01/30 11:39:46;;;;;;;38.78;8.90;;;7.30;99.90;;;;;;5034598;28;20381;-62
2022/01/30 11:42:12;;;;;;;35.67;8.02;;;7.30;99.90;;;;;;5035259;28;20446;-64
2022/01/30 11:44:40;;;;;;;38.72;9.18;;;7.60;99.90;;;;;;5034114;28;20904;-64
2022/01/30 11:47:07;;;;;;;40.42;9.02;;;7.70;99.90;;;;;;5034231;28;20504;-63
2022/01/30 11:49:47;;;;;;;35.53;8.50;;;7.70;99.90;;;;;;5033218;28;20421;-63
2022/01/30 11:52:15;;;;;;;34.33;8.70;;;7.60;99.90;;;;;;5032777;28;20472;-62
2022/01/30 11:54:43;;;;;;;41.50;9.55;;;7.50;99.90;;;;;;5030152;28;20418;-62
2022/01/30 11:57:21;;;;;;;29.23;8.32;;;7.50;99.90;;;;;;5028996;28;20422;-62
2022/01/30 11:59:52;;;;;;;39.88;8.45;;;7.50;99.90;;;;;;5030154;28;20736;-63
2022/01/30 12:02:24;;;;;;;35.03;8.18;;;7.50;99.90;;;;;;5030819;28;20405;-62
2022/01/30 12:05:01;;;;;;;29.50;7.10;;;7.50;99.90;;;;;;5029914;28;20421;-62
2022/01/30 12:07:41;;;;;;;33.28;7.95;;;7.40;99.90;;;;;;5030073;28;20408;-63
2022/01/30 12:10:16;;;;;;;27.27;7.78;;;7.40;99.90;;;;;;5028570;28;20448;-63
2022/01/30 12:12:59;;;;;;;33.15;8.15;;;7.40;99.90;;;;;;5027695;28;20398;-62
2022/01/30 12:15:43;;;;;;;33.80;7.50;;;7.40;99.90;;;;;;5030058;28;20406;-63
2022/01/30 12:18:12;;;;;;;37.05;8.43;;;7.50;99.90;;;;;;5030898;28;20398;-63
2022/01/30 12:20:59;;;;;;;31.10;7.65;;;7.60;99.90;;;;;;5030809;28;20746;-62
2022/01/30 12:23:26;;;;;;;23.45;7.13;;;7.60;99.90;;;;;;5029287;28;20415;-62
2022/01/30 12:26:03;;;;;;;33.57;8.10;;;7.60;99.90;;;;;;5029908;28;20391;-62
2022/01/30 12:28:52;;;;;;;31.00;7.93;;;7.60;99.90;;;;;;5029206;28;20386;-63
2022/01/30 12:31:24;;;;;;;27.20;6.78;;;7.60;99.90;;;;;;5031066;28;20443;-63
2022/01/30 12:34:07;;;;;;;27.70;7.20;;;7.60;99.90;;;;;;5030748;28;20430;-63
2022/01/30 12:36:41;;;;;;;36.13;8.38;;;7.70;99.90;;;;;;5029776;28;20494;-63
2022/01/30 12:39:12;;;;;;;33.60;8.48;;;7.60;99.90;;;;;;5029616;28;20398;-63
2022/01/30 12:41:39;;;;;;;37.63;7.97;;;7.50;99.90;;;;;;5029712;28;20469;-63
2022/01/30 12:44:08;;;;;;;36.08;8.48;;;7.50;99.90;;;;;;5029838;28;20389;-62
2022/01/30 12:46:35;;;;;;;33.40;9.75;;;7.50;99.90;;;;;;5029922;28;20410;-62
2022/01/30 12:49:13;;;;;;;35.00;7.97;;;7.40;99.90;;;;;;5031786;28;20456;-62
2022/01/30 12:51:41;;;;;;;33.72;8.48;;;7.40;99.90;;;;;;5030291;28;20683;-63
2022/01/30 12:54:09;;;;;;;33.28;8.27;;;7.40;99.90;;;;;;5029024;28;20403;-63
2022/01/30 12:56:36;;;;;;;29.73;7.28;;;7.50;99.90;;;;;;5012611;28;20454;-63
2022/01/30 12:59:06;;;;;;;31.08;8.00;;;7.50;99.90;;;;;;5031424;28;20399;-62
2022/01/30 13:01:38;;;;;;;31.67;7.50;;;7.50;99.90;;;;;;5034750;28;20850;-63
2022/01/30 13:04:07;;;;;;;27.73;7.03;;;7.70;99.90;;;;;;5053975;28;20421;-63
2022/01/30 13:06:38;;;;;;;26.13;6.53;;;7.60;99.90;;;;;;5052925;28;20381;-63
2022/01/30 13:09:05;;;;;;;26.52;6.05;;;7.50;99.90;;;;;;5054827;28;20881;-63
2022/01/30 13:11:34;;;;;;;27.58;6.28;;;7.30;99.90;;;;;;5052171;28;20426;-63
2022/01/30 13:14:07;;;;;;;22.65;6.32;;;7.30;99.90;;;;;;5050864;28;20734;-63
2022/01/30 13:16:44;;;;;;;26.10;6.20;;;7.60;99.90;;;;;;5050735;28;20827;-63
2022/01/30 13:19:12;;;;;;;23.85;6.25;;;7.70;99.90;;;;;;5048338;28;20404;-63
2022/01/30 13:21:44;;;;;;;27.23;6.53;;;7.80;99.90;;;;;;5048320;28;20740;-63
2022/01/30 13:24:09;;;;;;;24.80;6.37;;;7.80;99.90;;;;;;5049070;28;20389;-61
2022/01/30 13:26:41;;;;;;;28.23;6.55;;;7.60;99.90;;;;;;5047508;28;20381;-62
2022/01/30 13:29:19;;;;;;;29.20;6.60;;;7.40;99.90;;;;;;5047619;28;20664;-62
2022/01/30 13:31:50;;;;;;;31.33;7.17;;;7.30;99.90;;;;;;5050067;28;20520;-62
2022/01/30 13:34:27;;;;;;;30.13;6.53;;;7.20;99.90;;;;;;5049863;28;20542;-62